createdAt,value
2022-08-05T00:00:29.966Z,20.9
2022-08-05T00:01:35.771Z,20.9
2022-08-05T00:02:39.210Z,20.9
2022-08-05T00:03:47.566Z,20.9
2022-08-05T00:05:00.033Z,20.9
2022-08-05T00:06:22.237Z,20.9
2022-08-05T00:07:21.939Z,20.9
2022-08-05T00:08:20.125Z,20.8
2022-08-05T00:09:24.303Z,20.8
2022-08-05T00:11:48.616Z,20.8
2022-08-05T00:12:56.318Z,20.7
2022-08-05T00:13:56.374Z,20.7
2022-08-05T00:15:14.141Z,20.7
2022-08-05T00:16:12.907Z,20.7
2022-08-05T00:17:18.558Z,20.7
2022-08-05T00:18:28.122Z,20.7
2022-08-05T00:19:40.735Z,20.6
2022-08-05T00:20:43.050Z,20.6
2022-08-05T00:21:47.782Z,20.6
2022-08-05T00:22:56.061Z,20.6
2022-08-05T00:24:05.136Z,20.6
2022-08-05T00:25:02.575Z,20.6
2022-08-05T00:26:23.402Z,20.5
2022-08-05T00:27:43.146Z,20.5
2022-08-05T00:28:49.214Z,20.5
2022-08-05T00:29:53.495Z,20.5
2022-08-05T00:30:57.926Z,20.5
2022-08-05T00:32:11.254Z,20.4
2022-08-05T00:33:06.742Z,20.4
2022-08-05T00:34:43.127Z,20.4
2022-08-05T00:35:33.568Z,20.4
2022-08-05T00:37:12.136Z,20.4
2022-08-05T00:37:51.546Z,20.4
2022-08-05T00:38:48.930Z,20.4
2022-08-05T00:40:03.436Z,20.4
2022-08-05T00:41:13.882Z,20.4
2022-08-05T00:42:32.018Z,20.4
2022-08-05T00:43:46.821Z,20.4
2022-08-05T00:44:40.175Z,20.4
2022-08-05T00:45:53.751Z,20.4
2022-08-05T00:47:01.733Z,20.4
2022-08-05T00:48:05.024Z,20.4
2022-08-05T00:49:09.483Z,20.4
2022-08-05T00:50:13.926Z,20.4
2022-08-05T00:51:50.148Z,20.4
2022-08-05T00:52:29.994Z,20.4
2022-08-05T00:53:35.192Z,20.4
2022-08-05T00:54:42.586Z,20.4
2022-08-05T00:55:47.034Z,20.4
2022-08-05T00:56:55.582Z,20.4
2022-08-05T00:58:04.609Z,20.4
2022-08-05T00:59:07.851Z,20.4
2022-08-05T01:00:17.034Z,20.4
2022-08-05T01:01:42.374Z,20.3
2022-08-05T01:02:31.700Z,20.3
2022-08-05T01:03:39.666Z,20.3
2022-08-05T01:04:45.252Z,20.3
2022-08-05T01:05:49.750Z,20.3
2022-08-05T01:06:55.022Z,20.3
2022-08-05T01:08:30.573Z,20.2
2022-08-05T01:09:13.598Z,20.2
2022-08-05T01:10:20.562Z,20.2
2022-08-05T01:11:33.775Z,20.2
2022-08-05T01:12:33.914Z,20.2
2022-08-05T01:13:58.198Z,20.2
2022-08-05T01:14:51.134Z,20.1
2022-08-05T01:16:05.031Z,20.1
2022-08-05T01:17:09.463Z,20.1
2022-08-05T01:18:18.999Z,20.1
2022-08-05T01:19:30.376Z,20
2022-08-05T01:20:42.039Z,20
2022-08-05T01:21:56.602Z,20
2022-08-05T01:23:05.872Z,20
2022-08-05T01:24:16.858Z,20
2022-08-05T01:25:39.521Z,20
2022-08-05T01:26:42.770Z,20
2022-08-05T01:27:58.862Z,20
2022-08-05T01:29:16.141Z,20
2022-08-05T01:30:33.677Z,20
2022-08-05T01:31:31.675Z,20
2022-08-05T01:32:38.455Z,20
2022-08-05T01:33:43.110Z,20
2022-08-05T01:34:49.294Z,20
2022-08-05T01:35:59.171Z,20
2022-08-05T01:37:05.217Z,20
2022-08-05T01:38:25.041Z,20
2022-08-05T01:39:36.923Z,20
2022-08-05T01:40:27.995Z,20
2022-08-05T01:41:36.290Z,20
2022-08-05T01:42:40.663Z,20
2022-08-05T01:43:49.130Z,19.9
2022-08-05T01:44:54.035Z,19.9
2022-08-05T01:45:58.897Z,19.9
2022-08-05T01:47:06.761Z,19.9
2022-08-05T01:48:15.610Z,19.8
2022-08-05T01:49:42.762Z,19.9
2022-08-05T01:50:50.820Z,19.8
2022-08-05T01:51:51.000Z,19.8
2022-08-05T01:52:55.158Z,19.8
2022-08-05T01:53:59.567Z,19.8
2022-08-05T01:55:30.429Z,19.8
2022-08-05T01:58:09.013Z,19.8
2022-08-05T01:58:09.162Z,19.8
2022-08-05T01:58:47.295Z,19.8
2022-08-05T01:59:51.614Z,19.8
2022-08-05T02:01:00.100Z,19.8
2022-08-05T02:02:05.361Z,19.7
2022-08-05T02:03:16.482Z,19.7
2022-08-05T02:04:27.518Z,19.7
2022-08-05T02:05:34.188Z,19.7
2022-08-05T02:06:39.565Z,19.7
2022-08-05T02:08:00.443Z,19.7
2022-08-05T02:08:55.089Z,19.6
2022-08-05T02:10:37.021Z,19.7
2022-08-05T02:11:47.988Z,19.6
2022-08-05T02:12:56.289Z,19.6
2022-08-05T02:14:12.187Z,19.7
2022-08-05T02:15:19.664Z,19.6
2022-08-05T02:16:31.970Z,19.6
2022-08-05T02:18:29.240Z,19.6
2022-08-05T02:18:59.353Z,19.6
2022-08-05T02:20:04.121Z,19.6
2022-08-05T02:21:13.182Z,19.6
2022-08-05T02:22:25.469Z,19.7
2022-08-05T02:23:28.137Z,19.6
2022-08-05T02:24:35.434Z,19.6
2022-08-05T02:25:49.660Z,19.6
2022-08-05T02:26:51.066Z,19.6
2022-08-05T02:27:58.738Z,19.7
2022-08-05T02:28:58.684Z,19.7
2022-08-05T02:30:04.106Z,19.6
2022-08-05T02:31:14.386Z,19.6
2022-08-05T02:32:19.715Z,19.6
2022-08-05T02:33:24.274Z,19.6
2022-08-05T02:34:34.137Z,19.6
2022-08-05T02:35:45.066Z,19.6
2022-08-05T02:36:45.025Z,19.6
2022-08-05T02:38:04.881Z,19.6
2022-08-05T02:39:10.285Z,19.6
2022-08-05T02:40:14.922Z,19.6
2022-08-05T02:41:43.447Z,19.6
2022-08-05T02:42:52.594Z,19.6
2022-08-05T02:44:22.865Z,19.6
2022-08-05T02:45:27.230Z,19.6
2022-08-05T02:46:31.653Z,19.5
2022-08-05T02:47:58.875Z,19.5
2022-08-05T02:48:47.870Z,19.5
2022-08-05T02:49:57.198Z,19.5
2022-08-05T02:51:01.705Z,19.5
2022-08-05T02:52:06.109Z,19.5
2022-08-05T02:53:12.102Z,19.5
2022-08-05T02:54:34.565Z,19.5
2022-08-05T02:55:51.956Z,19.4
2022-08-05T02:56:36.346Z,19.4
2022-08-05T02:58:09.575Z,19.4
2022-08-05T02:58:51.342Z,19.4
2022-08-05T02:59:51.888Z,19.4
2022-08-05T03:00:56.417Z,19.4
2022-08-05T03:02:02.111Z,19.4
2022-08-05T03:03:11.232Z,19.3
2022-08-05T03:04:18.437Z,19.3
2022-08-05T03:06:53.099Z,19.3
2022-08-05T03:06:53.495Z,19.3
2022-08-05T03:07:40.733Z,19.3
2022-08-05T03:08:38.592Z,19.3
2022-08-05T03:09:51.583Z,19.3
2022-08-05T03:11:00.920Z,19.3
2022-08-05T03:11:59.318Z,19.3
2022-08-05T03:14:14.165Z,19.2
2022-08-05T03:15:20.404Z,19.2
2022-08-05T03:16:24.802Z,19.2
2022-08-05T03:18:43.801Z,19.2
2022-08-05T03:19:49.745Z,19.2
2022-08-05T03:20:53.590Z,19.2
2022-08-05T03:21:58.610Z,19.2
2022-08-05T03:23:07.721Z,19.2
2022-08-05T03:24:13.366Z,19.2
2022-08-05T03:25:32.365Z,19.2
2022-08-05T03:26:31.180Z,19.2
2022-08-05T03:27:29.706Z,19.2
2022-08-05T03:28:38.443Z,19.2
2022-08-05T03:29:44.889Z,19.2
2022-08-05T03:30:47.393Z,19.2
2022-08-05T03:32:00.631Z,19.2
2022-08-05T03:33:00.262Z,19.1
2022-08-05T03:34:04.824Z,19.1
2022-08-05T03:35:09.280Z,19.1
2022-08-05T03:36:13.773Z,19.1
2022-08-05T03:37:19.453Z,19.1
2022-08-05T03:38:32.657Z,19.1
2022-08-05T03:39:38.253Z,19.1
2022-08-05T03:40:53.265Z,19.1
2022-08-05T03:42:02.405Z,19.1
2022-08-05T03:43:16.162Z,19.1
2022-08-05T03:44:13.098Z,19.1
2022-08-05T03:45:21.293Z,19.1
2022-08-05T03:46:36.268Z,19.1
2022-08-05T03:47:41.471Z,19.1
2022-08-05T03:48:48.057Z,19.1
2022-08-05T03:49:53.166Z,19.1
2022-08-05T03:50:59.124Z,19.1
2022-08-05T03:52:36.344Z,19.1
2022-08-05T03:54:59.662Z,19
2022-08-05T03:54:59.872Z,19
2022-08-05T03:56:01.280Z,19
2022-08-05T03:56:47.321Z,19
2022-08-05T03:57:52.044Z,19
2022-08-05T03:58:57.161Z,19
2022-08-05T04:00:01.538Z,19
2022-08-05T04:01:11.068Z,19
2022-08-05T04:02:34.761Z,19
2022-08-05T04:03:26.866Z,19
2022-08-05T04:04:27.862Z,19
2022-08-05T04:05:34.515Z,19.1
2022-08-05T04:06:38.118Z,19.1
2022-08-05T04:07:51.425Z,19.1
2022-08-05T04:08:48.561Z,19.1
2022-08-05T04:09:53.381Z,19.1
2022-08-05T04:10:59.601Z,19.1
2022-08-05T04:12:05.878Z,19.1
2022-08-05T04:13:11.524Z,19.1
2022-08-05T04:14:17.830Z,19.1
2022-08-05T04:15:24.396Z,19.2
2022-08-05T04:16:32.229Z,19.2
2022-08-05T04:17:36.583Z,19.2
2022-08-05T04:18:39.370Z,19.2
2022-08-05T04:19:43.738Z,19.2
2022-08-05T04:20:48.036Z,19.2
2022-08-05T04:22:05.588Z,19.2
2022-08-05T04:23:07.776Z,19.2
2022-08-05T04:24:19.063Z,19.2
2022-08-05T04:25:24.321Z,19.2
2022-08-05T04:26:32.511Z,19.2
2022-08-05T04:27:42.002Z,19.2
2022-08-05T04:28:50.903Z,19.2
2022-08-05T04:29:46.446Z,19.2
2022-08-05T04:30:50.834Z,19.3
2022-08-05T04:31:56.713Z,19.3
2022-08-05T04:33:00.105Z,19.3
2022-08-05T04:34:19.483Z,19.3
2022-08-05T04:35:13.479Z,19.3
2022-08-05T04:36:38.705Z,19.3
2022-08-05T04:37:21.055Z,19.3
2022-08-05T04:38:39.338Z,19.3
2022-08-05T04:39:30.250Z,19.3
2022-08-05T04:40:34.641Z,19.3
2022-08-05T04:41:39.701Z,19.3
2022-08-05T04:42:44.981Z,19.4
2022-08-05T04:43:52.091Z,19.4
2022-08-05T04:44:54.177Z,19.4
2022-08-05T04:45:58.553Z,19.4
2022-08-05T04:47:10.330Z,19.4
2022-08-05T04:48:27.793Z,19.4
2022-08-05T04:49:38.266Z,19.4
2022-08-05T04:51:01.478Z,19.4
2022-08-05T04:51:49.721Z,19.4
2022-08-05T04:52:59.992Z,19.5
2022-08-05T04:54:12.617Z,19.5
2022-08-05T04:55:17.186Z,19.5
2022-08-05T04:56:34.141Z,19.5
2022-08-05T04:57:28.855Z,19.5
2022-08-05T04:58:30.752Z,19.5
2022-08-05T04:59:38.638Z,19.5
2022-08-05T05:00:39.381Z,19.5
2022-08-05T05:02:06.590Z,19.5
2022-08-05T05:03:00.248Z,19.6
2022-08-05T05:04:11.165Z,19.6
2022-08-05T05:05:17.136Z,19.6
2022-08-05T05:06:36.358Z,20.2
2022-08-05T05:07:29.323Z,20.2
2022-08-05T05:08:31.337Z,20.2
2022-08-05T05:09:37.343Z,20.2
2022-08-05T05:10:40.128Z,20.2
2022-08-05T05:11:48.575Z,20.2
2022-08-05T05:13:55.229Z,20.3
2022-08-05T05:15:03.599Z,20.3
2022-08-05T05:16:19.703Z,20.3
2022-08-05T05:17:24.786Z,20.3
2022-08-05T05:18:28.597Z,20.3
2022-08-05T05:19:58.009Z,20.4
2022-08-05T05:21:03.178Z,20.4
2022-08-05T05:22:23.187Z,20.4
2022-08-05T05:23:19.461Z,20.4
2022-08-05T05:24:18.110Z,20.4
2022-08-05T05:25:32.506Z,20.4
2022-08-05T05:26:28.270Z,20.6
2022-08-05T05:27:38.456Z,20.5
2022-08-05T05:28:38.954Z,20.6
2022-08-05T05:30:03.736Z,20.6
2022-08-05T05:30:49.627Z,20.6
2022-08-05T05:31:52.749Z,20.6
2022-08-05T05:32:56.982Z,20.6
2022-08-05T05:34:02.919Z,20.6
2022-08-05T05:35:07.213Z,20.7
2022-08-05T05:36:11.516Z,20.7
2022-08-05T05:37:16.463Z,20.7
2022-08-05T05:38:22.258Z,20.7
2022-08-05T05:39:37.903Z,20.8
2022-08-05T05:40:48.459Z,21
2022-08-05T05:41:54.193Z,21
2022-08-05T05:42:51.517Z,21.1
2022-08-05T05:44:00.404Z,21.1
2022-08-05T05:45:01.217Z,21.1
2022-08-05T05:46:07.705Z,21.1
2022-08-05T05:47:21.439Z,21.1
2022-08-05T05:48:27.445Z,21.2
2022-08-05T05:49:31.180Z,21.2
2022-08-05T05:50:41.355Z,21.2
2022-08-05T05:51:49.835Z,21.2
2022-08-05T05:52:51.348Z,21.2
2022-08-05T05:53:57.369Z,21.3
2022-08-05T05:55:01.299Z,21.3
2022-08-05T05:56:08.452Z,21.3
2022-08-05T05:57:18.968Z,21.3
2022-08-05T05:58:20.385Z,21.3
2022-08-05T05:59:25.697Z,21.3
2022-08-05T06:00:35.675Z,21.4
2022-08-05T06:01:40.178Z,21.4
2022-08-05T06:02:45.532Z,21.4
2022-08-05T06:04:01.472Z,22
2022-08-05T06:05:10.318Z,22.1
2022-08-05T06:06:09.221Z,22.2
2022-08-05T06:07:13.613Z,22.2
2022-08-05T06:08:31.718Z,22.2
2022-08-05T06:09:36.379Z,22.2
2022-08-05T06:10:29.579Z,22.2
2022-08-05T06:11:34.300Z,22.3
2022-08-05T06:12:42.161Z,22.3
2022-08-05T06:13:50.322Z,22.3
2022-08-05T06:14:48.412Z,22.3
2022-08-05T06:16:28.141Z,22.3
2022-08-05T06:16:58.717Z,22.4
2022-08-05T06:18:06.573Z,22.4
2022-08-05T06:19:11.008Z,22.4
2022-08-05T06:20:18.758Z,22.4
2022-08-05T06:21:23.962Z,22.4
2022-08-05T06:22:28.505Z,22.5
2022-08-05T06:23:43.568Z,22.5
2022-08-05T06:24:46.622Z,22.5
2022-08-05T06:25:59.924Z,22.5
2022-08-05T06:26:53.166Z,22.6
2022-08-05T06:28:09.610Z,22.6
2022-08-05T06:29:07.054Z,22.6
2022-08-05T06:30:16.892Z,22.6
2022-08-05T06:31:21.840Z,22.6
2022-08-05T06:32:29.061Z,22.7
2022-08-05T06:33:33.251Z,22.7
2022-08-05T06:34:34.468Z,22.7
2022-08-05T06:36:03.320Z,22.8
2022-08-05T06:36:57.726Z,24.4
2022-08-05T06:37:57.214Z,24.3
2022-08-05T06:39:08.596Z,24.2
2022-08-05T06:40:13.849Z,24.3
2022-08-05T06:41:21.160Z,24.3
2022-08-05T06:42:25.477Z,24.4
2022-08-05T06:43:51.931Z,24.4
2022-08-05T06:44:37.860Z,24.4
2022-08-05T06:45:44.335Z,24.5
2022-08-05T06:46:50.664Z,24.5
2022-08-05T06:48:12.234Z,24.6
2022-08-05T06:48:59.630Z,24.8
2022-08-05T06:50:05.220Z,24.7
2022-08-05T06:51:12.066Z,24.7
2022-08-05T06:52:37.595Z,24.7
2022-08-05T06:53:22.776Z,24.8
2022-08-05T06:54:27.044Z,25.1
2022-08-05T06:55:36.264Z,25.4
2022-08-05T06:56:41.163Z,25.3
2022-08-05T06:58:03.671Z,25.4
2022-08-05T06:59:08.304Z,25.4
2022-08-05T07:00:11.400Z,25.4
2022-08-05T07:01:20.891Z,25.4
2022-08-05T07:02:43.947Z,25.6
2022-08-05T07:03:48.440Z,25.9
2022-08-05T07:09:03.721Z,25.9
2022-08-05T07:10:08.365Z,26
2022-08-05T07:11:15.187Z,26
2022-08-05T07:12:18.969Z,26
2022-08-05T07:13:39.504Z,26
2022-08-05T07:14:38.871Z,26
2022-08-05T07:16:00.646Z,26.1
2022-08-05T07:17:57.949Z,26.1
2022-08-05T07:19:08.369Z,26.1
2022-08-05T07:20:37.026Z,26.1
2022-08-05T07:21:59.710Z,26.2
2022-08-05T07:22:45.832Z,26.2
2022-08-05T07:24:01.202Z,26.2
2022-08-05T07:25:22.314Z,26.2
2022-08-05T07:26:22.808Z,26.3
2022-08-05T07:27:56.811Z,26.3
2022-08-05T07:28:42.972Z,26.3
2022-08-05T07:30:22.710Z,26.3
2022-08-05T07:31:04.577Z,26.3
2022-08-05T07:32:11.022Z,26.3
2022-08-05T07:33:17.136Z,26.4
2022-08-05T07:34:45.228Z,26.4
2022-08-05T07:36:20.452Z,26.4
2022-08-05T07:37:11.781Z,26.4
2022-08-05T07:38:32.646Z,26.5
2022-08-05T07:39:24.602Z,26.5
2022-08-05T07:40:32.773Z,26.5
2022-08-05T07:42:09.759Z,26.5
2022-08-05T07:42:58.624Z,26.6
2022-08-05T07:45:02.196Z,26.6
2022-08-05T07:47:46.196Z,26.6
2022-08-05T07:50:12.196Z,26.7
2022-08-05T07:52:27.685Z,26.7
2022-08-05T07:54:47.585Z,26.7
2022-08-05T07:57:56.292Z,26.8
2022-08-05T07:58:59.407Z,26.8
2022-08-05T08:00:15.228Z,26.8
2022-08-05T08:01:22.006Z,26.8
2022-08-05T08:02:26.284Z,26.8
2022-08-05T08:03:44.156Z,26.9
2022-08-05T08:04:37.811Z,26.9
2022-08-05T08:05:54.529Z,26.9
2022-08-05T08:07:07.044Z,26.9
2022-08-05T08:08:19.898Z,26.9
2022-08-05T08:09:33.209Z,26.9
2022-08-05T08:10:37.484Z,27
2022-08-05T08:12:06.326Z,27
2022-08-05T08:13:11.553Z,27
2022-08-05T08:14:18.238Z,27
2022-08-05T08:15:37.521Z,27.1
2022-08-05T08:16:34.266Z,27.1
2022-08-05T08:17:30.239Z,27.1
2022-08-05T08:18:34.140Z,27.1
2022-08-05T08:20:10.527Z,27.1
2022-08-05T08:21:00.774Z,27.1
2022-08-05T08:22:00.642Z,27.2
2022-08-05T08:24:00.859Z,27.2
2022-08-05T08:24:18.929Z,27.2
2022-08-05T08:25:26.668Z,27.2
2022-08-05T08:26:29.859Z,27.2
2022-08-05T08:27:40.333Z,27.3
2022-08-05T08:29:22.064Z,27.3
2022-08-05T08:30:20.516Z,27.3
2022-08-05T08:31:13.802Z,27.3
2022-08-05T08:32:18.638Z,27.4
2022-08-05T08:33:22.576Z,27.4
2022-08-05T08:34:30.095Z,27.4
2022-08-05T08:35:34.938Z,27.4
2022-08-05T08:36:47.518Z,27.4
2022-08-05T08:37:45.042Z,27.4
2022-08-05T08:38:53.193Z,27.5
2022-08-05T08:40:00.888Z,27.5
2022-08-05T08:41:05.783Z,27.5
2022-08-05T08:42:15.273Z,27.5
2022-08-05T08:45:21.804Z,27.5
2022-08-05T08:45:21.935Z,27.5
2022-08-05T08:45:46.255Z,27.5
2022-08-05T08:46:50.535Z,27.5
2022-08-05T08:48:06.500Z,27.5
2022-08-05T08:50:05.575Z,27.5
2022-08-05T08:50:52.683Z,27.6
2022-08-05T08:52:02.657Z,27.6
2022-08-05T08:52:58.063Z,27.6
2022-08-05T08:54:11.637Z,27.6
2022-08-05T08:55:19.425Z,27.6
2022-08-05T08:56:33.504Z,27.7
2022-08-05T08:57:42.205Z,27.7
2022-08-05T08:58:47.799Z,27.7
2022-08-05T08:59:52.011Z,27.7
2022-08-05T09:00:56.858Z,27.7
2022-08-05T09:02:01.798Z,27.7
2022-08-05T09:03:06.793Z,27.8
2022-08-05T09:04:15.312Z,27.8
2022-08-05T09:05:38.087Z,27.8
2022-08-05T09:06:36.260Z,27.8
2022-08-05T09:07:57.187Z,27.8
2022-08-05T09:08:54.522Z,27.8
2022-08-05T09:10:09.888Z,27.9
2022-08-05T09:11:15.307Z,27.9
2022-08-05T09:12:20.334Z,27.9
2022-08-05T09:13:25.025Z,31
2022-08-05T09:14:55.004Z,31.2
2022-08-05T09:15:53.168Z,31.2
2022-08-05T09:16:58.973Z,31.3
2022-08-05T09:18:13.339Z,31.3
2022-08-05T09:19:17.448Z,31.2
2022-08-05T09:20:36.855Z,31.1
2022-08-05T09:22:18.267Z,31.1
2022-08-05T09:22:51.651Z,31.1
2022-08-05T09:24:05.715Z,31.3
2022-08-05T09:25:13.618Z,31.3
2022-08-05T09:26:20.635Z,31.3
2022-08-05T09:28:03.411Z,31.3
2022-08-05T09:28:45.528Z,31.3
2022-08-05T09:29:52.380Z,31.5
2022-08-05T09:32:38.870Z,31.6
2022-08-05T09:32:42.466Z,31.7
2022-08-05T09:33:59.095Z,31.7
2022-08-05T09:35:06.179Z,31.4
2022-08-05T09:36:16.312Z,31.5
2022-08-05T09:38:13.305Z,31.5
2022-08-05T09:38:27.178Z,31.5
2022-08-05T09:39:45.925Z,31.5
2022-08-05T09:41:16.038Z,31.3
2022-08-05T09:42:23.856Z,31.4
2022-08-05T09:43:22.248Z,31.5
2022-08-05T09:44:30.715Z,31.6
2022-08-05T09:46:05.423Z,31.7
2022-08-05T09:46:52.007Z,31.7
2022-08-05T09:47:56.416Z,31.7
2022-08-05T09:49:07.387Z,31.9
2022-08-05T09:50:03.337Z,32
2022-08-05T09:51:15.076Z,32
2022-08-05T09:52:13.771Z,31.9
2022-08-05T09:53:26.260Z,32.1
2022-08-05T09:54:58.648Z,32.1
2022-08-05T09:56:13.217Z,32.1
2022-08-05T09:57:23.577Z,32.1
2022-08-05T09:58:42.992Z,32.2
2022-08-05T10:00:57.839Z,32.3
2022-08-05T10:02:02.245Z,32.4
2022-08-05T10:03:13.820Z,32.4
2022-08-05T10:04:33.335Z,32.3
2022-08-05T10:06:31.021Z,32.4
2022-08-05T10:08:11.281Z,32.4
2022-08-05T10:09:44.747Z,32.4
2022-08-05T10:10:56.436Z,32.6
2022-08-05T10:12:30.882Z,32.8
2022-08-05T10:13:31.760Z,32.9
2022-08-05T10:15:20.101Z,32.7
2022-08-05T10:16:56.752Z,32.6
2022-08-05T10:18:11.339Z,32.6
2022-08-05T10:19:32.019Z,32.7
2022-08-05T10:20:36.129Z,32.6
2022-08-05T10:21:41.325Z,32.6
2022-08-05T10:22:48.832Z,32.6
2022-08-05T10:24:11.387Z,32.6
2022-08-05T10:26:46.695Z,32.6
2022-08-05T10:28:09.810Z,32.6
2022-08-05T10:28:56.483Z,32.6
2022-08-05T10:30:41.815Z,32.9
2022-08-05T10:32:50.106Z,32.9
2022-08-05T10:32:51.380Z,32.8
2022-08-05T10:33:54.024Z,32.9
2022-08-05T10:34:57.668Z,33
2022-08-05T10:36:40.309Z,33
2022-08-05T10:37:45.507Z,32.6
2022-08-05T10:38:56.437Z,32.5
2022-08-05T10:40:27.875Z,32.3
2022-08-05T10:41:45.116Z,32.3
2022-08-05T10:42:47.332Z,32.5
2022-08-05T10:43:52.411Z,32.7
2022-08-05T10:45:47.559Z,32.8
2022-08-05T10:46:59.960Z,32.8
2022-08-05T10:48:30.548Z,32.8
2022-08-05T10:49:32.901Z,32.8
2022-08-05T10:50:36.738Z,32.8
2022-08-05T10:51:36.994Z,33
2022-08-05T10:52:46.900Z,33.1
2022-08-05T10:53:56.075Z,33.3
2022-08-05T10:55:01.443Z,33.3
2022-08-05T10:56:14.799Z,33
2022-08-05T10:57:13.895Z,33.2
2022-08-05T10:58:36.095Z,33.2
2022-08-05T11:00:01.773Z,33.2
2022-08-05T11:00:35.360Z,33.2
2022-08-05T11:01:53.939Z,33.1
2022-08-05T11:02:45.104Z,33.1
2022-08-05T11:05:03.320Z,32.8
2022-08-05T11:06:08.328Z,32.7
2022-08-05T11:07:12.552Z,32.8
2022-08-05T11:08:33.981Z,33
2022-08-05T11:09:24.390Z,33
2022-08-05T11:10:27.306Z,33
2022-08-05T11:11:33.127Z,33
2022-08-05T11:12:41.184Z,33.2
2022-08-05T11:13:54.655Z,33.2
2022-08-05T11:15:01.671Z,33.2
2022-08-05T11:16:05.493Z,33.1
2022-08-05T11:17:58.269Z,33.3
2022-08-05T11:18:25.662Z,33.2
2022-08-05T11:20:11.674Z,33.2
2022-08-05T11:20:59.005Z,32.8
2022-08-05T11:22:03.184Z,33
2022-08-05T11:23:13.155Z,33.1
2022-08-05T11:24:29.682Z,33.1
2022-08-05T11:26:03.660Z,33.1
2022-08-05T11:26:49.384Z,33.2
2022-08-05T11:27:50.874Z,33.3
2022-08-05T11:28:56.315Z,33.3
2022-08-05T11:30:00.787Z,33.4
2022-08-05T11:31:05.907Z,33.4
2022-08-05T11:32:13.228Z,33.5
2022-08-05T11:33:25.631Z,33.3
2022-08-05T11:34:40.051Z,33.3
2022-08-05T11:36:02.965Z,33.4
2022-08-05T11:36:56.463Z,33.2
2022-08-05T11:38:27.570Z,33.2
2022-08-05T11:39:05.849Z,33.2
2022-08-05T11:40:10.611Z,33.3
2022-08-05T11:41:35.213Z,33.3
2022-08-05T11:42:22.800Z,33.4
2022-08-05T11:44:00.696Z,33.5
2022-08-05T11:44:41.015Z,33.5
2022-08-05T11:46:14.754Z,33.5
2022-08-05T11:46:58.890Z,33.5
2022-08-05T11:47:54.639Z,33.5
2022-08-05T11:48:58.164Z,33.4
2022-08-05T11:50:03.775Z,33.3
2022-08-05T11:51:08.671Z,33.3
2022-08-05T11:52:13.528Z,33.3
2022-08-05T11:53:23.087Z,33.4
2022-08-05T11:54:32.959Z,33.3
2022-08-05T11:55:36.200Z,33.5
2022-08-05T11:56:40.526Z,33.5
2022-08-05T11:58:08.838Z,33.3
2022-08-05T11:58:53.089Z,33
2022-08-05T11:59:54.273Z,33.2
2022-08-05T12:00:58.691Z,33.4
2022-08-05T12:02:12.121Z,33.3
2022-08-05T12:03:14.230Z,33.3
2022-08-05T12:04:19.000Z,33.2
2022-08-05T12:05:26.008Z,33.2
2022-08-05T12:06:34.175Z,33.3
2022-08-05T12:08:03.910Z,33.4
2022-08-05T12:08:50.151Z,33.4
2022-08-05T12:09:53.856Z,33.4
2022-08-05T12:10:57.419Z,33.3
2022-08-05T12:12:02.570Z,33.4
2022-08-05T12:13:15.704Z,33.4
2022-08-05T12:14:12.591Z,33.5
2022-08-05T12:15:17.544Z,33.5
2022-08-05T12:16:25.368Z,33.6
2022-08-05T12:18:00.917Z,33.7
2022-08-05T12:18:38.633Z,33.1
2022-08-05T12:20:17.302Z,33.1
2022-08-05T12:20:44.107Z,33
2022-08-05T12:21:48.587Z,33.2
2022-08-05T12:22:53.584Z,33.3
2022-08-05T12:24:08.609Z,33.4
2022-08-05T12:25:14.163Z,33.4
2022-08-05T12:26:17.977Z,33.4
2022-08-05T12:27:25.274Z,33.2
2022-08-05T12:28:30.922Z,33.3
2022-08-05T12:29:38.087Z,33.2
2022-08-05T12:30:45.683Z,33.1
2022-08-05T12:31:49.892Z,33.1
2022-08-05T12:32:51.507Z,33.1
2022-08-05T12:33:58.979Z,33.1
2022-08-05T12:35:03.988Z,33.2
2022-08-05T12:36:09.481Z,33.3
2022-08-05T12:37:17.192Z,33.4
2022-08-05T12:38:18.335Z,33.4
2022-08-05T12:39:27.840Z,33.2
2022-08-05T12:40:30.346Z,33
2022-08-05T12:41:39.846Z,33.1
2022-08-05T12:42:41.466Z,33.3
2022-08-05T12:43:46.635Z,33.2
2022-08-05T12:44:54.219Z,33.1
2022-08-05T12:46:06.785Z,33.1
2022-08-05T12:47:13.038Z,33.1
2022-08-05T12:48:32.841Z,33.1
2022-08-05T12:50:02.725Z,33.1
2022-08-05T12:50:42.303Z,33.1
2022-08-05T12:52:11.346Z,33.1
2022-08-05T12:52:59.019Z,33.1
2022-08-05T12:54:03.695Z,33.2
2022-08-05T12:55:09.204Z,33.2
2022-08-05T12:56:24.539Z,33.2
2022-08-05T12:57:44.958Z,33.3
2022-08-05T12:58:51.101Z,33.3
2022-08-05T13:00:09.208Z,33.3
2022-08-05T13:01:59.441Z,33.4
2022-08-05T13:02:31.966Z,33.3
2022-08-05T13:03:51.514Z,33.4
2022-08-05T13:04:58.694Z,33.4
2022-08-05T13:06:05.087Z,33.4
2022-08-05T13:07:10.605Z,33.4
2022-08-05T13:08:20.983Z,33.4
2022-08-05T13:09:27.831Z,33.4
2022-08-05T13:11:02.219Z,33.5
2022-08-05T13:12:06.628Z,33.5
2022-08-05T13:23:29.931Z,33.2
2022-08-05T13:24:51.294Z,33.2
2022-08-05T13:25:58.757Z,33.4
2022-08-05T13:27:35.733Z,33.4
2022-08-05T13:33:07.287Z,33.3
2022-08-05T13:35:42.578Z,33.4
2022-08-05T13:37:08.968Z,33.4
2022-08-05T13:38:20.334Z,33.5
2022-08-05T13:40:14.766Z,33.5
2022-08-05T13:40:52.387Z,33.6
2022-08-05T13:44:46.243Z,33.4
2022-08-05T13:48:56.927Z,33.5
2022-08-05T13:50:09.646Z,33.4
2022-08-05T13:58:11.643Z,33.5
2022-08-05T14:32:54.215Z,33.5
2022-08-05T14:34:18.155Z,33.6
2022-08-05T14:41:48.458Z,33.6
2022-08-05T14:44:09.475Z,33.7
2022-08-05T14:47:58.611Z,33.5
2022-08-05T14:52:51.446Z,33.7
2022-08-05T14:56:25.658Z,33.8
2022-08-05T14:57:33.986Z,33.7
2022-08-05T17:24:57.292Z,31.3
2022-08-05T17:27:34.048Z,31.2
2022-08-05T17:32:43.978Z,31.1
2022-08-05T17:34:09.009Z,31.1
2022-08-05T17:36:38.701Z,31
2022-08-05T17:37:45.078Z,30.9
2022-08-05T17:38:44.313Z,30.9
2022-08-05T17:39:51.154Z,30.9
2022-08-05T17:40:54.556Z,30.8
2022-08-05T17:42:17.119Z,30.8
2022-08-05T17:43:07.546Z,30.8
2022-08-05T17:44:26.651Z,30.7
2022-08-05T17:45:29.682Z,30.7
2022-08-05T17:46:29.821Z,30.6
2022-08-05T17:47:37.005Z,30.6
2022-08-05T17:48:43.295Z,30.5
2022-08-05T17:49:51.831Z,30.5
2022-08-05T17:50:49.669Z,30.5
2022-08-05T17:51:53.848Z,30.4
2022-08-05T17:53:08.557Z,30.4
2022-08-05T17:54:23.216Z,30.4
2022-08-05T17:55:27.551Z,30.3
2022-08-05T17:56:32.956Z,30.3
2022-08-05T17:57:37.168Z,30.2
2022-08-05T17:58:42.092Z,30.2
2022-08-05T17:59:50.099Z,30.1
2022-08-05T18:00:52.457Z,30.1
2022-08-05T18:02:03.220Z,30.1
2022-08-05T18:03:58.791Z,30
2022-08-05T18:04:53.534Z,30
2022-08-05T18:06:02.467Z,29.9
2022-08-05T18:07:09.626Z,29.9
2022-08-05T18:08:14.165Z,29.8
2022-08-05T18:09:19.105Z,29.8
2022-08-05T18:10:23.711Z,29.8
2022-08-05T18:11:33.342Z,29.7
2022-08-05T18:12:32.792Z,29.6
2022-08-05T18:13:43.900Z,29.6
2022-08-05T18:14:41.738Z,29.6
2022-08-05T18:15:46.432Z,29.5
2022-08-05T18:16:52.305Z,29.5
2022-08-05T18:17:58.387Z,29.5
2022-08-05T18:19:00.320Z,29.4
2022-08-05T18:20:04.780Z,29.4
2022-08-05T18:21:13.020Z,29.4
2022-08-05T18:22:17.921Z,29.4
2022-08-05T18:23:21.336Z,29.3
2022-08-05T18:24:26.225Z,29.3
2022-08-05T18:25:32.664Z,29.2
2022-08-05T18:26:35.345Z,29.2
2022-08-05T18:27:52.195Z,29.2
2022-08-05T18:28:49.040Z,29.1
2022-08-05T18:29:54.646Z,29.1
2022-08-05T18:30:58.152Z,29.1
2022-08-05T18:32:03.056Z,29
2022-08-05T18:33:07.824Z,29
2022-08-05T18:34:21.623Z,29
2022-08-05T18:35:28.245Z,28.9
2022-08-05T18:36:29.581Z,28.9
2022-08-05T18:37:40.113Z,28.8
2022-08-05T18:38:40.308Z,28.8
2022-08-05T18:40:31.890Z,28.8
2022-08-05T18:41:54.495Z,28.7
2022-08-05T18:42:01.118Z,28.7
2022-08-05T18:42:59.007Z,28.7
2022-08-05T18:44:05.645Z,28.7
2022-08-05T18:45:08.641Z,28.6
2022-08-05T18:46:13.616Z,28.6
2022-08-05T18:47:18.391Z,28.6
2022-08-05T18:48:31.033Z,28.6
2022-08-05T18:49:30.637Z,28.5
2022-08-05T18:50:42.466Z,28.5
2022-08-05T18:52:03.809Z,28.5
2022-08-05T18:52:59.005Z,28.5
2022-08-05T18:54:03.616Z,28.5
2022-08-05T18:55:10.251Z,28.5
2022-08-05T18:56:12.817Z,28.4
2022-08-05T18:57:17.171Z,28.4
2022-08-05T18:58:27.395Z,28.4
2022-08-05T18:59:42.375Z,28.4
2022-08-05T19:00:30.307Z,28.4
2022-08-05T19:01:47.374Z,28.3
2022-08-05T19:02:39.662Z,28.3
2022-08-05T19:03:53.563Z,28.3
2022-08-05T19:04:54.708Z,28.2
2022-08-05T19:06:06.662Z,28.2
2022-08-05T19:07:03.596Z,28.2
2022-08-05T19:08:12.183Z,28.2
2022-08-05T19:09:13.065Z,28.1
2022-08-05T19:10:17.602Z,28.1
2022-08-05T19:11:23.374Z,28.1
2022-08-05T19:12:34.849Z,28
2022-08-05T19:13:40.225Z,28
2022-08-05T19:15:00.151Z,28
2022-08-05T19:15:58.467Z,27.9
2022-08-05T19:20:05.228Z,27.8
2022-08-05T19:21:11.236Z,27.8
2022-08-05T19:22:16.996Z,27.8
2022-08-05T19:23:22.808Z,27.8
2022-08-05T19:24:34.184Z,27.8
2022-08-05T19:25:31.894Z,27.8
2022-08-05T19:26:34.896Z,27.7
2022-08-05T19:27:39.193Z,27.6
2022-08-05T19:28:44.102Z,27.6
2022-08-05T19:29:52.416Z,27.5
2022-08-05T19:30:58.080Z,27.4